Time;durP1;ratioP1;P1;durP2;ratioP2;P2;SDS_P1;SDS_P2;PMS_P1;PMS_P2;Temp;Humidity;BMP_temperature;BMP_pressure;BME280_temperature;BME280_humidity;BME280_pressure;Samples;Min_cycle;Max_cycle;Signal;HPM_P1;HPM_P2
2020/12/24 00:00:58;;;;;;;0.63;0.38;;;10.80;87.00;;;;;;5026827;28;20021;-65
2020/12/24 00:03:24;;;;;;;0.68;0.50;;;10.80;86.90;;;;;;5037486;28;20030;-65
2020/12/24 00:05:50;;;;;;;2.00;0.60;;;10.70;86.90;;;;;;5027319;28;20064;-65
2020/12/24 00:08:15;;;;;;;2.30;0.40;;;10.70;87.10;;;;;;5029476;28;20041;-65
2020/12/24 00:10:41;;;;;;;0.82;0.60;;;10.70;87.20;;;;;;5026340;28;20065;-64
2020/12/24 00:13:06;;;;;;;1.13;0.40;;;10.70;87.20;;;;;;5029628;28;20044;-65
2020/12/24 00:15:32;;;;;;;1.92;0.40;;;10.60;87.20;;;;;;5025949;28;20021;-64
2020/12/24 00:17:58;;;;;;;0.30;0.30;;;10.60;87.40;;;;;;5010567;28;20086;-65
2020/12/24 00:20:23;;;;;;;0.57;0.50;;;10.60;87.60;;;;;;5028565;28;20038;-64
2020/12/24 00:22:49;;;;;;;1.45;0.47;;;10.60;87.70;;;;;;5027880;28;20116;-65
2020/12/24 00:25:14;;;;;;;0.77;0.50;;;10.60;87.70;;;;;;5029672;28;20383;-65
2020/12/24 00:27:40;;;;;;;1.27;0.40;;;10.60;87.70;;;;;;5031326;28;20700;-65
2020/12/24 00:30:05;;;;;;;0.45;0.40;;;10.60;87.70;;;;;;5030995;28;20544;-65
2020/12/24 00:32:31;;;;;;;2.15;0.60;;;10.60;87.90;;;;;;5031535;28;20029;-65
2020/12/24 00:34:57;;;;;;;0.85;0.55;;;10.60;87.90;;;;;;5025942;28;20113;-66
2020/12/24 00:37:22;;;;;;;1.58;0.50;;;10.50;87.80;;;;;;5032082;28;20064;-66
2020/12/24 00:39:48;;;;;;;0.50;0.50;;;10.50;88.00;;;;;;5032298;28;20067;-66
2020/12/24 00:42:13;;;;;;;2.53;1.08;;;10.50;88.10;;;;;;5031990;28;20036;-65
2020/12/24 00:44:39;;;;;;;1.65;0.70;;;10.50;88.20;;;;;;5025088;28;20029;-66
2020/12/24 00:47:05;;;;;;;0.90;0.52;;;10.50;88.20;;;;;;5032828;28;20040;-66
2020/12/24 00:49:30;;;;;;;1.13;0.47;;;10.50;88.20;;;;;;5028291;28;20029;-66
2020/12/24 00:51:56;;;;;;;1.15;0.50;;;10.50;88.30;;;;;;5027774;28;20520;-66
2020/12/24 00:54:21;;;;;;;2.00;0.60;;;10.50;88.30;;;;;;5022330;28;20034;-65
2020/12/24 00:56:47;;;;;;;0.82;0.55;;;10.50;88.40;;;;;;5022697;28;20157;-65
2020/12/24 00:59:13;;;;;;;0.70;0.57;;;10.50;88.40;;;;;;5025699;28;20025;-65
2020/12/24 01:01:39;;;;;;;0.73;0.60;;;10.50;88.50;;;;;;5028816;28;20036;-66
2020/12/24 01:04:05;;;;;;;0.80;0.60;;;10.50;88.50;;;;;;5025521;28;20429;-66
2020/12/24 01:06:31;;;;;;;0.47;0.47;;;10.50;88.60;;;;;;5030919;28;20076;-66
2020/12/24 01:08:56;;;;;;;0.80;0.73;;;10.50;88.50;;;;;;5016757;28;20030;-65
2020/12/24 01:11:30;;;;;;;1.95;0.60;;;10.50;88.60;;;;;;5013373;28;20385;-66
2020/12/24 01:13:56;;;;;;;1.58;0.77;;;10.40;87.80;;;;;;5022237;28;20049;-65
2020/12/24 01:16:22;;;;;;;0.52;0.52;;;10.50;87.50;;;;;;5029754;28;20029;-65
2020/12/24 01:18:47;;;;;;;0.30;0.30;;;10.50;86.20;;;;;;5024214;28;20022;-66
2020/12/24 01:21:13;;;;;;;0.90;0.50;;;10.50;85.70;;;;;;5023008;28;20032;-66
2020/12/24 01:23:39;;;;;;;0.40;0.40;;;10.50;85.70;;;;;;5026028;28;20036;-66
2020/12/24 01:26:07;;;;;;;3.75;0.43;;;10.50;85.60;;;;;;5029402;28;20123;-65
2020/12/24 01:28:33;;;;;;;0.45;0.40;;;10.50;83.80;;;;;;5023051;28;20038;-65
2020/12/24 01:30:59;;;;;;;1.35;0.40;;;10.60;81.20;;;;;;5030079;28;20026;-65
2020/12/24 01:33:26;;;;;;;0.40;0.40;;;10.60;80.60;;;;;;5028225;28;20044;-66
2020/12/24 01:35:51;;;;;;;0.93;0.40;;;10.60;79.70;;;;;;5030259;28;20033;-65
2020/12/24 01:38:17;;;;;;;0.40;0.40;;;10.60;80.10;;;;;;5017934;28;20038;-65
2020/12/24 01:40:42;;;;;;;0.63;0.43;;;10.60;80.10;;;;;;5028503;28;20033;-66
2020/12/24 01:43:08;;;;;;;2.30;0.65;;;10.50;80.50;;;;;;5021473;28;20030;-66
2020/12/24 01:45:33;;;;;;;0.77;0.40;;;10.50;80.70;;;;;;5030164;28;20033;-65
2020/12/24 01:47:59;;;;;;;1.52;0.55;;;10.50;80.80;;;;;;5028617;28;20437;-66
2020/12/24 01:50:25;;;;;;;1.27;0.47;;;10.50;80.20;;;;;;5028500;28;20401;-64
2020/12/24 01:52:51;;;;;;;1.52;0.35;;;10.40;80.30;;;;;;5018914;28;20064;-66
2020/12/24 01:55:18;;;;;;;0.50;0.50;;;10.40;80.20;;;;;;5029266;28;20021;-66
2020/12/24 01:57:43;;;;;;;0.45;0.32;;;10.40;80.60;;;;;;5007928;28;20025;-64
2020/12/24 02:00:11;;;;;;;0.75;0.47;;;10.30;81.10;;;;;;5012115;28;20036;-66
2020/12/24 02:02:36;;;;;;;1.02;0.50;;;10.30;80.50;;;;;;5025255;28;20147;-65
2020/12/24 02:05:03;;;;;;;1.60;0.55;;;10.20;80.40;;;;;;5029344;28;20467;-65
2020/12/24 02:07:29;;;;;;;0.88;0.38;;;10.20;80.70;;;;;;5028800;28;20397;-66
2020/12/24 02:09:55;;;;;;;0.63;0.40;;;10.20;80.70;;;;;;5029672;28;20033;-66
2020/12/24 02:12:20;;;;;;;0.30;0.30;;;10.20;80.60;;;;;;5011740;28;20459;-66
2020/12/24 02:14:47;;;;;;;1.00;0.30;;;10.20;81.20;;;;;;5036655;28;20821;-66
2020/12/24 02:17:13;;;;;;;0.93;0.60;;;10.20;80.30;;;;;;5022908;28;20470;-65
2020/12/24 02:19:41;;;;;;;1.23;0.45;;;10.10;79.90;;;;;;5026808;28;20060;-65
2020/12/24 02:22:07;;;;;;;2.78;0.40;;;10.10;79.40;;;;;;5018473;28;20378;-66
2020/12/24 02:24:32;;;;;;;0.30;0.30;;;10.00;79.50;;;;;;5026773;28;20034;-65
2020/12/24 02:26:58;;;;;;;0.40;0.40;;;10.00;79.30;;;;;;5028290;28;20037;-65
2020/12/24 02:29:24;;;;;;;0.90;0.30;;;9.90;79.70;;;;;;5028618;28;20037;-65
2020/12/24 02:31:50;;;;;;;1.38;0.30;;;9.90;79.20;;;;;;5024566;28;20044;-66
2020/12/24 02:34:16;;;;;;;13.90;0.88;;;9.80;79.00;;;;;;5028173;28;20481;-66
2020/12/24 02:36:42;;;;;;;0.45;0.40;;;9.80;79.80;;;;;;5030210;28;20109;-66
2020/12/24 02:39:07;;;;;;;0.90;0.35;;;9.70;79.60;;;;;;5025083;28;20033;-66
2020/12/24 02:41:33;;;;;;;0.20;0.20;;;9.70;79.90;;;;;;5027641;28;20420;-66
2020/12/24 02:43:58;;;;;;;0.85;0.38;;;9.60;79.70;;;;;;5028596;28;20044;-66
2020/12/24 02:46:24;;;;;;;1.98;0.50;;;9.70;79.90;;;;;;5028808;28;20033;-65
2020/12/24 02:48:49;;;;;;;0.35;0.35;;;9.60;79.60;;;;;;5022814;28;20500;-66
2020/12/24 02:51:15;;;;;;;1.40;0.40;;;9.60;80.00;;;;;;5022291;28;20029;-64
2020/12/24 02:53:41;;;;;;;0.75;0.40;;;9.60;80.10;;;;;;5023115;28;20026;-64
2020/12/24 02:56:06;;;;;;;0.55;0.32;;;9.60;80.00;;;;;;5027932;28;20090;-66
2020/12/24 02:58:32;;;;;;;0.55;0.38;;;9.60;79.80;;;;;;5010627;28;20049;-65
2020/12/24 03:00:58;;;;;;;0.68;0.50;;;9.60;80.10;;;;;;5010446;28;20436;-66
2020/12/24 03:03:26;;;;;;;1.42;0.30;;;9.60;80.10;;;;;;5015568;28;20037;-65
2020/12/24 03:05:52;;;;;;;0.60;0.45;;;9.50;80.20;;;;;;5028928;28;20472;-65
2020/12/24 03:08:19;;;;;;;2.08;0.43;;;9.50;80.30;;;;;;5022546;28;20228;-65
2020/12/24 03:10:45;;;;;;;0.50;0.30;;;9.50;80.20;;;;;;5028601;28;20052;-65
2020/12/24 03:13:11;;;;;;;0.20;0.20;;;9.50;80.40;;;;;;5028837;28;20030;-65
2020/12/24 03:15:36;;;;;;;0.52;0.40;;;9.40;80.30;;;;;;5035185;28;20032;-65
2020/12/24 03:18:02;;;;;;;0.95;0.40;;;9.40;80.50;;;;;;5027847;28;20041;-65
2020/12/24 03:20:27;;;;;;;0.40;0.40;;;9.40;80.60;;;;;;5030719;28;20095;-65
2020/12/24 03:22:53;;;;;;;0.80;0.30;;;9.40;80.70;;;;;;4999207;28;20509;-65
2020/12/24 03:25:18;;;;;;;0.68;0.30;;;9.40;80.80;;;;;;5035996;28;20025;-65
2020/12/24 03:27:44;;;;;;;1.92;0.38;;;9.40;81.00;;;;;;5025760;28;20037;-65
2020/12/24 03:30:10;;;;;;;0.40;0.40;;;9.40;80.90;;;;;;5015593;28;20117;-66
2020/12/24 03:32:36;;;;;;;1.55;0.38;;;9.30;81.10;;;;;;5020861;28;20037;-65
2020/12/24 03:35:03;;;;;;;0.50;0.30;;;9.30;81.20;;;;;;5024834;28;20029;-65
2020/12/24 03:37:28;;;;;;;0.70;0.40;;;9.30;81.40;;;;;;5022557;28;20025;-65
2020/12/24 03:39:54;;;;;;;1.15;0.40;;;9.30;81.40;;;;;;5027103;28;20043;-65
2020/12/24 03:42:20;;;;;;;0.30;0.30;;;9.30;81.60;;;;;;5027211;28;20026;-65
2020/12/24 03:44:46;;;;;;;0.30;0.30;;;9.20;81.80;;;;;;5029002;28;20056;-65
2020/12/24 03:47:11;;;;;;;6.88;0.50;;;9.20;81.90;;;;;;5026057;28;20788;-65
2020/12/24 03:49:37;;;;;;;0.52;0.40;;;9.20;82.10;;;;;;5028777;28;20096;-65
2020/12/24 03:52:02;;;;;;;1.25;0.30;;;9.20;82.30;;;;;;5022987;28;20037;-65
2020/12/24 03:54:28;;;;;;;1.20;0.40;;;9.20;82.30;;;;;;5072152;22;20128;-89
2020/12/24 03:57:09;;;;;;;0.50;0.50;;;9.20;82.90;;;;;;5018019;28;20021;-90
2020/12/24 03:59:35;;;;;;;0.50;0.30;;;9.20;82.70;;;;;;5019594;28;20064;-90
2020/12/24 04:02:01;;;;;;;0.52;0.30;;;9.20;82.70;;;;;;5018952;28;20025;-91
2020/12/24 04:04:27;;;;;;;1.85;0.43;;;9.20;82.90;;;;;;5005306;28;20555;-91
2020/12/24 04:06:52;;;;;;;1.70;0.40;;;9.10;83.10;;;;;;5006792;28;20071;-90
2020/12/24 04:09:18;;;;;;;0.65;0.35;;;9.10;83.20;;;;;;5026818;28;20060;-90
2020/12/24 04:11:43;;;;;;;4.38;0.50;;;9.10;83.30;;;;;;5018928;28;20021;-91
2020/12/24 04:14:09;;;;;;;0.77;0.38;;;9.00;83.30;;;;;;5006055;28;20025;-90
2020/12/24 04:16:35;;;;;;;0.65;0.40;;;9.10;83.60;;;;;;5017754;28;20035;-90
2020/12/24 04:19:00;;;;;;;1.75;0.38;;;9.00;84.30;;;;;;5014305;28;20031;-90
2020/12/24 04:21:26;;;;;;;0.30;0.30;;;9.00;83.90;;;;;;5026345;28;20030;-90
2020/12/24 04:23:52;;;;;;;0.40;0.40;;;9.00;83.90;;;;;;5018306;28;20087;-90
2020/12/24 04:26:19;;;;;;;1.75;0.50;;;9.10;84.10;;;;;;5033765;28;20049;-90
2020/12/24 04:28:44;;;;;;;0.82;0.32;;;9.00;84.00;;;;;;5017871;28;20033;-90
2020/12/24 04:31:10;;;;;;;3.28;1.02;;;9.00;84.10;;;;;;5019748;28;20432;-90
2020/12/24 04:33:39;;;;;;;1.23;0.50;;;9.00;84.00;;;;;;5035941;28;20028;-91
2020/12/24 04:36:04;;;;;;;0.70;0.47;;;9.00;84.10;;;;;;5002223;28;20064;-90
2020/12/24 04:38:30;;;;;;;0.68;0.40;;;9.00;84.10;;;;;;5018167;28;20471;-91
2020/12/24 04:41:00;;;;;;;0.35;0.30;;;8.90;84.00;;;;;;5018074;28;20021;-91
2020/12/24 04:43:27;;;;;;;1.85;0.50;;;8.90;84.00;;;;;;5018164;28;20499;-90
2020/12/24 04:45:54;;;;;;;0.40;0.40;;;8.80;84.10;;;;;;5017710;28;20032;-91
2020/12/24 04:48:21;;;;;;;1.50;0.60;;;8.80;84.20;;;;;;5034629;28;20030;-91
2020/12/24 04:50:51;;;;;;;0.98;0.40;;;8.80;84.70;;;;;;5015806;28;20032;-90
2020/12/24 04:53:18;;;;;;;1.02;0.38;;;8.80;84.20;;;;;;5014027;28;20033;-90
2020/12/24 04:55:44;;;;;;;1.02;0.50;;;8.80;84.20;;;;;;5025298;28;20041;-91
2020/12/24 04:58:10;;;;;;;1.70;0.60;;;8.80;84.20;;;;;;5025450;28;20476;-91
2020/12/24 05:00:37;;;;;;;1.23;0.75;;;8.80;84.10;;;;;;5017638;28;20122;-90
2020/12/24 05:03:08;;;;;;;2.20;0.50;;;8.80;84.20;;;;;;5017630;28;20051;-90
2020/12/24 05:05:35;;;;;;;1.27;0.50;;;8.80;84.20;;;;;;5017619;28;20064;-91
2020/12/24 05:08:06;;;;;;;0.50;0.50;;;8.70;84.20;;;;;;5016506;28;20044;-91
2020/12/24 05:10:32;;;;;;;0.50;0.50;;;8.70;84.30;;;;;;5018355;28;20030;-90
2020/12/24 05:12:58;;;;;;;1.65;0.50;;;8.80;84.40;;;;;;5017518;28;20071;-91
2020/12/24 05:15:29;;;;;;;1.85;0.40;;;8.70;84.30;;;;;;5017230;28;20026;-90
2020/12/24 05:18:13;;;;;;;0.32;0.32;;;8.70;84.50;;;;;;5017344;28;20254;-90
2020/12/24 05:21:19;;;;;;;3.65;0.50;;;8.70;84.50;;;;;;5016243;28;20048;-90
2020/12/24 05:23:45;;;;;;;1.90;0.30;;;8.70;84.40;;;;;;5003765;28;20042;-90
2020/12/24 05:26:19;;;;;;;0.75;0.40;;;8.60;84.10;;;;;;5013902;28;20538;-90
2020/12/24 05:28:45;;;;;;;0.60;0.40;;;8.70;84.20;;;;;;5017667;28;20518;-90
2020/12/24 05:31:11;;;;;;;1.58;0.60;;;8.60;84.60;;;;;;5019568;28;20029;-91
2020/12/24 05:33:36;;;;;;;4.28;0.65;;;8.60;84.20;;;;;;5018198;28;20143;-91
2020/12/24 05:36:21;;;;;;;2.53;0.60;;;8.60;84.10;;;;;;5017573;28;20021;-90
2020/12/24 05:38:48;;;;;;;1.10;0.50;;;8.50;84.10;;;;;;5018087;28;20108;-91
2020/12/24 05:41:29;;;;;;;1.77;0.40;;;8.50;84.00;;;;;;5017541;28;20380;-90
2020/12/24 05:44:08;;;;;;;1.73;0.40;;;8.50;84.10;;;;;;5015021;28;20038;-90
2020/12/24 05:46:45;;;;;;;0.50;0.40;;;8.40;83.90;;;;;;5016706;28;20494;-91
2020/12/24 05:49:16;;;;;;;1.63;0.50;;;8.40;83.80;;;;;;5032215;28;20037;-90
2020/12/24 05:51:46;;;;;;;7.07;3.78;;;8.40;83.90;;;;;;5016446;28;20049;-91
2020/12/24 05:54:15;;;;;;;1.40;0.70;;;8.40;84.10;;;;;;5018074;28;20028;-90
2020/12/24 05:56:43;;;;;;;1.17;0.60;;;8.40;84.00;;;;;;5022548;28;20026;-89
2020/12/24 05:59:17;;;;;;;0.45;0.30;;;8.30;84.10;;;;;;5007406;28;20087;-91
2020/12/24 06:02:05;;;;;;;1.33;0.50;;;8.30;84.00;;;;;;5018967;28;20032;-91
2020/12/24 06:04:43;;;;;;;0.40;0.40;;;8.30;83.90;;;;;;5029929;28;20200;-91
2020/12/24 06:07:12;;;;;;;1.70;0.60;;;8.30;84.00;;;;;;5016345;28;20032;-91
2020/12/24 06:09:40;;;;;;;1.00;0.47;;;8.30;84.10;;;;;;5016327;28;20023;-91
2020/12/24 06:12:19;;;;;;;1.65;0.70;;;8.20;84.00;;;;;;5016359;28;20021;-91
2020/12/24 06:14:47;;;;;;;2.47;0.70;;;8.20;84.10;;;;;;5010129;28;20547;-91
2020/12/24 06:17:23;;;;;;;0.95;0.45;;;8.20;84.00;;;;;;5015726;28;20021;-90
2020/12/24 06:19:49;;;;;;;3.20;0.50;;;8.20;83.90;;;;;;5015541;28;20115;-90
2020/12/24 06:22:16;;;;;;;1.33;0.47;;;8.20;84.00;;;;;;5015916;28;20033;-91
2020/12/24 06:24:43;;;;;;;1.27;0.52;;;8.20;83.80;;;;;;5032801;28;20036;-91
2020/12/24 06:27:31;;;;;;;1.52;0.40;;;8.20;83.90;;;;;;5011622;28;20083;-90
2020/12/24 06:30:46;;;;;;;1.27;0.55;;;8.20;83.80;;;;;;5017374;28;20079;-90
2020/12/24 06:33:12;;;;;;;0.20;0.20;;;8.20;83.80;;;;;;5015024;28;20081;-91
2020/12/24 06:35:40;;;;;;;2.72;0.50;;;8.20;83.70;;;;;;5015413;28;20113;-91
2020/12/24 06:38:11;;;;;;;1.67;0.35;;;8.20;83.80;;;;;;5016118;28;20391;-91
2020/12/24 06:40:39;;;;;;;2.90;0.50;;;8.20;83.50;;;;;;5010247;28;20431;-91
2020/12/24 06:43:07;;;;;;;0.45;0.40;;;8.20;83.80;;;;;;5008886;28;20535;-91
2020/12/24 06:45:40;;;;;;;1.60;0.60;;;8.20;83.80;;;;;;5015793;28;20052;-92
2020/12/24 06:48:19;;;;;;;1.38;0.50;;;8.20;83.80;;;;;;5016277;28;20025;-91
2020/12/24 06:50:49;;;;;;;0.40;0.40;;;8.20;83.50;;;;;;5016104;28;20026;-91
2020/12/24 06:53:36;;;;;;;3.28;0.80;;;8.20;83.40;;;;;;5015633;28;20456;-91
2020/12/24 06:56:14;;;;;;;2.65;0.50;;;8.20;83.40;;;;;;5018546;28;20053;-91
2020/12/24 06:58:51;;;;;;;4.10;1.02;;;8.20;83.50;;;;;;5020912;28;20021;-91
2020/12/24 07:01:20;;;;;;;2.78;0.70;;;8.20;83.40;;;;;;5016096;28;20478;-92
2020/12/24 07:03:54;;;;;;;3.83;0.80;;;8.20;83.50;;;;;;5015832;28;20555;-91
2020/12/24 07:06:42;;;;;;;2.95;0.63;;;8.20;83.10;;;;;;5011954;28;20047;-89
2020/12/24 07:09:33;;;;;;;1.75;0.90;;;8.20;83.30;;;;;;5014885;28;20026;-90
2020/12/24 07:12:00;;;;;;;4.57;0.70;;;8.20;83.30;;;;;;5027162;28;20123;-89
2020/12/24 07:14:36;;;;;;;2.75;0.60;;;8.20;83.10;;;;;;5010865;28;20033;-89
2020/12/24 07:17:09;;;;;;;1.67;0.70;;;8.20;83.30;;;;;;5011945;28;20026;-88
2020/12/24 07:19:37;;;;;;;3.08;0.60;;;8.20;83.30;;;;;;5021879;28;20020;-90
2020/12/24 07:22:08;;;;;;;2.08;0.70;;;8.20;83.30;;;;;;5016161;28;20024;-89
2020/12/24 07:24:34;;;;;;;3.40;0.75;;;8.20;83.30;;;;;;5029348;28;20080;-90
2020/12/24 07:27:02;;;;;;;6.25;0.88;;;8.20;82.90;;;;;;5022160;28;20114;-89
2020/12/24 07:29:29;;;;;;;7.88;0.80;;;8.30;82.70;;;;;;5013875;28;20618;-90
2020/12/24 07:31:56;;;;;;;1.75;0.73;;;8.30;82.90;;;;;;5018126;28;20033;-90
2020/12/24 07:34:31;;;;;;;3.30;0.88;;;8.30;82.90;;;;;;5019200;28;20395;-90
2020/12/24 07:37:00;;;;;;;2.28;0.82;;;8.30;82.70;;;;;;4999141;28;20042;-89
2020/12/24 07:39:32;;;;;;;2.72;0.90;;;8.30;82.60;;;;;;5005924;28;20514;-89
2020/12/24 07:42:00;;;;;;;5.50;0.80;;;8.30;82.20;;;;;;5004096;28;20021;-90
2020/12/24 07:44:34;;;;;;;2.78;1.38;;;8.30;82.40;;;;;;5019002;28;20026;-90
2020/12/24 07:47:02;;;;;;;3.72;1.30;;;8.30;82.70;;;;;;5004284;28;20296;-90
2020/12/24 07:49:33;;;;;;;2.00;0.80;;;8.30;82.70;;;;;;5021654;28;20036;-90
2020/12/24 07:51:59;;;;;;;2.20;0.98;;;8.30;82.60;;;;;;5027941;28;20060;-89
2020/12/24 07:54:29;;;;;;;2.22;0.90;;;8.30;82.50;;;;;;5016534;28;20467;-90
2020/12/24 07:56:58;;;;;;;6.82;2.17;;;8.30;82.60;;;;;;5027168;28;20037;-89
2020/12/24 08:06:18;;;;;;;8.38;2.20;;;8.20;82.60;;;;;;5035651;28;20048;-89
2020/12/24 08:09:20;;;;;;;5.00;1.85;;;8.20;82.80;;;;;;5018324;28;20486;-89
2020/12/24 08:12:23;;;;;;;8.15;1.30;;;8.10;82.60;;;;;;5018351;28;20030;-89
2020/12/24 08:14:50;;;;;;;;;;;8.10;82.90;;;;;;5018919;28;20032;-89
2020/12/24 08:17:33;;;;;;;2.33;0.77;;;8.00;83.00;;;;;;5018226;28;20398;-90
2020/12/24 08:23:55;;;;;;;5.88;1.27;;;7.80;83.50;;;;;;4999781;28;20122;-89
2020/12/24 08:26:21;;;;;;;3.65;1.00;;;7.70;83.70;;;;;;5038061;28;20032;-90
2020/12/24 08:28:58;;;;;;;3.30;0.90;;;7.70;84.20;;;;;;5027728;28;20030;-89
2020/12/24 08:31:39;;;;;;;2.60;0.82;;;7.70;84.40;;;;;;5018565;28;20025;-90
2020/12/24 08:34:09;;;;;;;4.18;1.00;;;7.70;84.40;;;;;;5010078;28;20030;-89
2020/12/24 08:36:43;;;;;;;4.35;0.95;;;7.70;84.40;;;;;;5018627;28;20079;-89
2020/12/24 08:39:26;;;;;;;3.03;0.80;;;7.70;84.60;;;;;;5028733;28;20021;-89
2020/12/24 08:42:16;;;;;;;4.25;1.05;;;7.70;84.60;;;;;;5001857;28;20029;-90
2020/12/24 08:44:42;;;;;;;1.42;0.80;;;7.80;84.50;;;;;;5018931;28;20030;-90
2020/12/24 08:47:09;;;;;;;5.93;1.50;;;7.70;84.30;;;;;;5018227;28;20029;-91
2020/12/24 08:49:42;;;;;;;2.75;1.00;;;7.70;84.40;;;;;;5027190;28;20032;-90
2020/12/24 08:55:27;;;;;;;4.45;1.02;;;7.60;84.40;;;;;;5031388;28;20041;-90
2020/12/24 08:58:03;;;;;;;3.15;0.80;;;7.70;84.30;;;;;;5004430;28;20415;-90
2020/12/24 09:00:29;;;;;;;5.63;1.08;;;7.70;84.30;;;;;;5014730;28;20034;-90
2020/12/24 09:02:54;;;;;;;4.85;1.17;;;7.70;84.50;;;;;;5017987;28;20388;-91
2020/12/24 09:05:25;;;;;;;2.83;0.80;;;7.60;84.00;;;;;;5017984;28;20030;-89
2020/12/24 09:07:51;;;;;;;3.88;0.88;;;7.60;84.20;;;;;;5017869;28;20507;-91
2020/12/24 09:10:24;;;;;;;4.25;0.85;;;7.60;84.10;;;;;;5017592;28;20040;-91
2020/12/24 09:13:01;;;;;;;5.63;1.00;;;7.60;84.00;;;;;;5017818;28;20444;-91
2020/12/24 09:15:28;;;;;;;4.40;1.30;;;7.60;84.20;;;;;;5017306;28;20047;-90
2020/12/24 09:18:00;;;;;;;5.93;1.40;;;7.60;84.10;;;;;;5017335;28;20499;-91
2020/12/24 09:20:26;;;;;;;;;;;7.70;84.00;;;;;;5018050;28;20076;-90
2020/12/24 09:22:56;;;;;;;4.68;0.90;;;7.70;84.10;;;;;;5017365;28;19909;-92
2020/12/24 09:25:44;;;;;;;3.53;0.88;;;7.70;84.10;;;;;;5017438;28;20017;-92
2020/12/24 09:28:23;;;;;;;9.00;1.10;;;7.70;84.20;;;;;;5013627;28;20038;-91
2020/12/24 09:31:19;;;;;;;4.07;1.30;;;7.70;84.10;;;;;;5017405;28;20033;-92
2020/12/24 09:33:45;;;;;;;6.78;1.10;;;7.70;84.10;;;;;;4999562;28;20033;-91
2020/12/24 09:36:11;;;;;;;4.20;0.90;;;7.70;84.20;;;;;;5017385;28;20021;-90
2020/12/24 09:38:37;;;;;;;7.57;2.88;;;7.70;84.30;;;;;;5033752;28;20029;-87
2020/12/24 09:41:03;;;;;;;3.60;1.10;;;7.70;84.40;;;;;;5017181;28;20037;-90
2020/12/24 09:43:28;;;;;;;3.13;0.95;;;7.70;84.40;;;;;;5017597;28;20464;-92
2020/12/24 09:45:55;;;;;;;3.35;1.60;;;7.60;84.60;;;;;;5017460;28;20570;-91
2020/12/24 09:48:20;;;;;;;3.67;1.00;;;7.60;84.60;;;;;;5017044;28;20080;-91
2020/12/24 09:50:46;;;;;;;4.03;1.50;;;7.60;84.00;;;;;;5030982;28;20041;-91
2020/12/24 09:53:11;;;;;;;3.83;0.90;;;7.70;84.10;;;;;;5018946;28;20108;-90
2020/12/24 09:58:07;;;;;;;2.88;0.68;;;7.70;83.50;;;;;;5027678;28;20050;-66
2020/12/24 10:00:33;;;;;;;3.83;0.70;;;7.70;83.70;;;;;;5017199;28;20068;-66
2020/12/24 10:02:58;;;;;;;1.45;0.63;;;7.70;83.80;;;;;;5013734;28;20087;-65
2020/12/24 10:05:24;;;;;;;1.63;1.17;;;7.70;83.20;;;;;;5017323;28;20374;-66
2020/12/24 10:07:49;;;;;;;1.58;0.70;;;7.80;83.40;;;;;;5020740;28;20030;-66
2020/12/24 10:10:15;;;;;;;0.50;0.50;;;7.80;83.30;;;;;;5004320;28;20033;-66
2020/12/24 10:12:40;;;;;;;2.00;0.80;;;7.80;83.40;;;;;;5020182;28;20029;-65
2020/12/24 10:15:06;;;;;;;3.65;1.15;;;7.80;83.30;;;;;;5022283;28;20026;-65
2020/12/24 10:17:31;;;;;;;2.40;1.17;;;7.80;83.20;;;;;;5022482;28;20069;-66
2020/12/24 10:19:57;;;;;;;2.80;0.82;;;7.80;83.20;;;;;;5013130;28;20030;-71
2020/12/24 10:22:23;;;;;;;0.80;0.70;;;7.90;83.30;;;;;;5003464;28;20030;-67
2020/12/24 10:24:49;;;;;;;1.67;0.50;;;7.90;83.20;;;;;;5012046;28;20049;-65
2020/12/24 10:27:14;;;;;;;1.83;0.80;;;7.90;83.20;;;;;;5015610;28;20033;-67
2020/12/24 10:29:41;;;;;;;2.22;0.60;;;7.90;83.10;;;;;;5015943;28;20041;-66
2020/12/24 10:32:07;;;;;;;1.77;0.70;;;7.90;82.60;;;;;;5013142;28;20029;-66
2020/12/24 10:34:33;;;;;;;1.67;0.60;;;8.00;82.90;;;;;;5012725;28;20056;-67
2020/12/24 10:37:00;;;;;;;2.05;0.52;;;7.90;82.80;;;;;;5012492;28;20030;-66
2020/12/24 10:39:27;;;;;;;2.42;0.50;;;7.90;82.70;;;;;;5012981;28;20025;-65
2020/12/24 10:41:53;;;;;;;2.38;0.45;;;8.00;82.70;;;;;;5001214;28;20092;-65
2020/12/24 10:44:18;;;;;;;0.57;0.50;;;8.00;82.60;;;;;;5010594;28;20541;-66
2020/12/24 10:46:44;;;;;;;3.25;0.57;;;7.90;83.30;;;;;;5011965;28;20095;-65
2020/12/24 10:49:10;;;;;;;1.52;0.68;;;7.90;83.00;;;;;;5019514;28;20104;-65
2020/12/24 10:51:36;;;;;;;1.25;0.50;;;7.90;83.20;;;;;;5018690;28;20117;-65
2020/12/24 10:54:03;;;;;;;1.73;0.60;;;7.80;83.40;;;;;;5010348;28;20053;-64
2020/12/24 10:56:28;;;;;;;4.40;0.75;;;7.80;83.40;;;;;;5010488;28;20044;-66
2020/12/24 10:58:54;;;;;;;0.50;0.50;;;7.80;83.80;;;;;;5011777;28;20026;-65
2020/12/24 11:01:20;;;;;;;1.42;0.63;;;7.80;84.00;;;;;;5012401;28;20030;-66
2020/12/24 11:03:46;;;;;;;0.50;0.50;;;7.70;83.90;;;;;;5016290;28;20058;-66
2020/12/24 11:06:17;;;;;;;1.73;0.60;;;7.80;84.20;;;;;;5018219;28;20021;-66
2020/12/24 11:08:42;;;;;;;0.98;0.60;;;7.80;84.30;;;;;;4997404;28;20053;-65
2020/12/24 11:11:08;;;;;;;1.80;0.68;;;7.80;84.10;;;;;;5014632;28;20064;-66
2020/12/24 11:13:33;;;;;;;1.05;0.77;;;7.80;84.10;;;;;;5012418;28;20816;-68
2020/12/24 11:15:59;;;;;;;1.38;0.70;;;7.80;84.10;;;;;;5014417;28;20030;-68
2020/12/24 11:18:24;;;;;;;1.00;0.70;;;7.80;84.40;;;;;;5011634;28;20025;-65
2020/12/24 11:20:50;;;;;;;2.88;0.60;;;7.80;84.50;;;;;;5019033;28;20029;-68
2020/12/24 11:23:16;;;;;;;1.88;0.60;;;7.80;84.40;;;;;;5015822;28;20018;-67
2020/12/24 11:25:41;;;;;;;0.73;0.50;;;7.80;84.60;;;;;;5013535;28;20026;-67
2020/12/24 11:28:07;;;;;;;3.60;0.80;;;7.80;84.60;;;;;;5011511;28;20029;-66
2020/12/24 11:30:33;;;;;;;2.22;0.88;;;7.80;84.70;;;;;;5014159;28;20117;-66
2020/12/24 11:32:59;;;;;;;1.02;0.70;;;7.80;84.80;;;;;;5010123;28;20068;-70
2020/12/24 11:35:25;;;;;;;1.83;0.80;;;7.80;84.90;;;;;;5009235;28;20363;-66
2020/12/24 11:37:51;;;;;;;0.65;0.55;;;7.80;84.80;;;;;;5012424;28;20022;-66
2020/12/24 11:40:17;;;;;;;1.75;0.40;;;7.80;84.90;;;;;;5009405;28;20103;-67
2020/12/24 11:42:43;;;;;;;1.23;0.60;;;7.80;84.90;;;;;;5009147;28;20028;-67
2020/12/24 11:45:08;;;;;;;2.20;1.35;;;7.80;84.90;;;;;;5010146;28;20042;-69
2020/12/24 11:47:35;;;;;;;1.73;0.80;;;7.80;85.20;;;;;;5009824;28;20049;-66
2020/12/24 11:50:01;;;;;;;1.85;0.60;;;7.80;85.10;;;;;;5010345;28;20119;-66
2020/12/24 11:52:26;;;;;;;0.55;0.47;;;7.70;85.30;;;;;;5009337;28;20026;-67
2020/12/24 11:54:52;;;;;;;3.10;0.80;;;7.70;85.40;;;;;;5009240;28;20037;-67
2020/12/24 11:57:18;;;;;;;3.10;1.13;;;7.80;85.40;;;;;;5012531;28;20531;-66
2020/12/24 11:59:43;;;;;;;1.42;0.70;;;7.70;85.30;;;;;;5026533;28;20180;-66
2020/12/24 12:02:09;;;;;;;0.80;0.80;;;7.80;85.40;;;;;;5016488;28;20026;-66
2020/12/24 12:04:35;;;;;;;2.05;0.70;;;7.80;85.40;;;;;;4991057;28;20064;-66
2020/12/24 12:07:01;;;;;;;0.63;0.57;;;7.80;85.30;;;;;;5012913;28;20026;-65
2020/12/24 12:09:27;;;;;;;0.52;0.40;;;7.90;85.20;;;;;;5009257;28;20048;-65
2020/12/24 12:11:52;;;;;;;1.83;0.60;;;7.90;85.20;;;;;;5001855;28;20022;-65
2020/12/24 12:14:18;;;;;;;1.05;0.65;;;7.90;85.30;;;;;;5005514;28;20113;-66
2020/12/24 12:16:43;;;;;;;0.55;0.55;;;8.00;85.10;;;;;;5015133;28;20022;-67
2020/12/24 12:19:10;;;;;;;0.50;0.40;;;8.00;84.80;;;;;;4999741;28;20037;-67
2020/12/24 12:21:36;;;;;;;1.30;0.80;;;8.00;84.80;;;;;;5014377;28;20034;-67
2020/12/24 12:24:02;;;;;;;3.88;2.00;;;8.00;84.70;;;;;;5008182;28;20105;-66
2020/12/24 12:26:28;;;;;;;3.90;1.50;;;8.10;84.80;;;;;;5021524;28;20080;-67
2020/12/24 12:28:54;;;;;;;0.50;0.50;;;8.00;84.80;;;;;;5018188;28;20486;-66
2020/12/24 12:31:23;;;;;;;0.85;0.73;;;8.10;84.80;;;;;;5011241;28;20043;-67
2020/12/24 12:33:49;;;;;;;1.08;0.50;;;8.10;84.30;;;;;;5013847;28;20034;-67
2020/12/24 12:36:15;;;;;;;0.40;0.40;;;8.10;84.50;;;;;;5012618;28;20022;-67
2020/12/24 12:38:41;;;;;;;2.05;0.80;;;8.10;84.60;;;;;;5012021;28;20033;-67
2020/12/24 12:41:06;;;;;;;0.60;0.60;;;8.20;84.60;;;;;;5001167;28;20382;-67
2020/12/24 12:43:32;;;;;;;0.50;0.50;;;8.10;84.10;;;;;;5015945;28;20022;-67
2020/12/24 12:45:57;;;;;;;1.27;0.40;;;8.10;84.20;;;;;;5013372;28;20096;-67
2020/12/24 12:48:23;;;;;;;1.70;0.55;;;8.20;84.40;;;;;;4996286;28;20053;-67
2020/12/24 12:50:49;;;;;;;0.98;0.50;;;8.30;84.30;;;;;;5014184;28;20022;-67
2020/12/24 12:53:14;;;;;;;0.60;0.47;;;8.30;84.30;;;;;;5000680;28;20386;-67
2020/12/24 12:55:40;;;;;;;0.68;0.60;;;8.40;84.40;;;;;;5012679;28;20036;-67
2020/12/24 12:58:06;;;;;;;1.40;0.80;;;8.40;84.40;;;;;;5013641;28;20022;-67
2020/12/24 13:00:32;;;;;;;1.85;0.80;;;8.40;84.30;;;;;;5013185;28;20045;-67
2020/12/24 13:02:57;;;;;;;0.98;0.70;;;8.40;84.50;;;;;;5021452;28;20026;-67
2020/12/24 13:05:23;;;;;;;0.60;0.60;;;8.50;84.70;;;;;;5016090;28;20029;-67
2020/12/24 13:07:48;;;;;;;1.23;1.02;;;8.50;84.50;;;;;;5013446;28;20109;-67
2020/12/24 13:10:14;;;;;;;0.63;0.63;;;8.50;84.60;;;;;;5014460;28;20395;-67
2020/12/24 13:12:40;;;;;;;0.80;0.70;;;8.50;84.60;;;;;;5012422;28;20080;-67
2020/12/24 13:15:06;;;;;;;0.93;0.70;;;8.50;84.50;;;;;;4990313;28;20129;-67
2020/12/24 13:17:31;;;;;;;1.25;0.80;;;8.50;84.30;;;;;;5013458;28;20030;-67